Fort Wayne International Airport
KFWA : rendu visible

Aérodrome :











RETROUVEZ-NOUS SUR...

 
LOGIN :

S'inscrire | Disclaimer

   EN    FR    IT 

 









Légende :    VFR   VFR Marginal   IFR   IFR Intensif   IFR Très Intensif
Visi : 
Plafond : 
>= 8 km
>= 3000ft
5 à 8 km
1000 à 3000 ft
1500m à 5 km
500 à 1000 ft
800 à 1500m
200 à 500 ft
< 800m
< 200 ft
Symboles :   Orages  Brouillard  Fortes neiges  Fortes précipitations  Vent > 20 kt






- Altitude de l'aérodrome : 814 ft
- Code IATA : FWA


KFWA - Fort Wayne International

DERNIER METAR :
  • 230254Z 15004KT 10SM FEW110 OVC150 M01/M05 A3023 RMK AO2 SLP247 T10111050 56007

METARs EXPIRÉS :
  • 230154Z 14004KT 10SM OVC180 M01/M05 A3023 RMK AO2 SLP249 T10111050
  • 230054Z 14004KT 10SM SCT170 OVC210 M01/M05 A3024 RMK AO2 SLP253 T10111050
  • 222354Z 15005KT 10SM OVC200 M01/M05 A3025 RMK AO2 SLP255 T10061050 10011 21011 56005

TAF KFWA
Valide du 23 à 00h jusqu'au 24 à 00h UTC


222320Z 2300/2324 16006KT P6SM OVC250
FM231400 17007KT P6SM OVC080



MET'MAP, la Météo Aéronautique d'un coup d'oeil ! - Copyright ORBIFLY Décembre 2007 - Disclaimer

ORBIFLY MET'MAP TEAM :

Programmation & Développement : Alexandra Zaïnal
Sur une idée originale de : Baudouin d'Aumeries
Assistance à la programmation : Marc-Olivier Méhu
Soutien technique & logistique : Manuel Goepfert

Contact : metmap@orbifly.com




SOURCES & CREDITS :

   NOAA       Earth
Advisory